createdAt,value
2019-05-13T00:02:04.567Z,68.60
2019-05-13T00:04:33.880Z,69.00
2019-05-13T00:07:04.809Z,69.20
2019-05-13T00:09:34.211Z,69.20
2019-05-13T00:12:04.721Z,68.50
2019-05-13T00:14:34.516Z,69.20
2019-05-13T00:17:04.407Z,68.90
2019-05-13T00:19:34.002Z,69.30
2019-05-13T00:22:03.927Z,69.90
2019-05-13T00:24:33.878Z,68.90
2019-05-13T00:27:04.119Z,68.50
2019-05-13T00:29:34.073Z,67.80
2019-05-13T00:32:04.839Z,66.60
2019-05-13T00:34:34.130Z,66.10
2019-05-13T00:37:11.160Z,67.10
2019-05-13T00:39:33.946Z,68.10
2019-05-13T00:42:04.021Z,67.60
2019-05-13T00:44:33.974Z,67.80
2019-05-13T00:47:04.502Z,68.50
2019-05-13T00:49:34.515Z,68.20
2019-05-13T00:52:04.097Z,68.70
2019-05-13T00:54:34.175Z,68.00
2019-05-13T00:57:04.409Z,68.20
2019-05-13T00:59:34.205Z,68.50
2019-05-13T01:02:03.917Z,68.80
2019-05-13T01:04:33.879Z,69.10
2019-05-13T01:07:04.369Z,69.40
2019-05-13T01:09:34.470Z,69.90
2019-05-13T01:12:04.598Z,70.00
2019-05-13T01:14:34.467Z,70.60
2019-05-13T01:17:04.095Z,70.50
2019-05-13T01:19:34.301Z,70.00
2019-05-13T01:22:03.824Z,70.10
2019-05-13T01:24:33.611Z,69.70
2019-05-13T01:27:04.029Z,69.60
2019-05-13T01:29:34.468Z,70.20
2019-05-13T01:32:04.707Z,70.50
2019-05-13T01:34:34.092Z,70.10
2019-05-13T01:37:04.169Z,70.10
2019-05-13T01:39:34.959Z,69.60
2019-05-13T01:42:04.515Z,69.70
2019-05-13T01:44:33.868Z,70.00
2019-05-13T01:47:04.473Z,69.70
2019-05-13T01:49:33.894Z,69.80
2019-05-13T01:52:03.756Z,70.00
2019-05-13T01:54:33.847Z,70.30
2019-05-13T01:57:04.463Z,70.70
2019-05-13T01:59:34.714Z,70.50
2019-05-13T02:02:04.018Z,70.60
2019-05-13T02:04:33.590Z,71.10
2019-05-13T02:07:04.076Z,71.40
2019-05-13T02:09:34.225Z,69.80
2019-05-13T02:12:04.851Z,69.40
2019-05-13T02:14:34.221Z,69.00
2019-05-13T02:17:04.150Z,69.80
2019-05-13T02:19:33.802Z,69.60
2019-05-13T02:22:04.040Z,68.60
2019-05-13T02:24:34.135Z,68.00
2019-05-13T02:27:04.031Z,67.90
2019-05-13T02:29:34.434Z,67.40
2019-05-13T02:32:03.655Z,67.60
2019-05-13T02:34:32.663Z,67.60
2019-05-13T02:37:03.330Z,68.20
2019-05-13T02:39:32.971Z,68.90
2019-05-13T02:42:03.427Z,69.30
2019-05-13T02:44:33.619Z,69.60
2019-05-13T02:47:03.624Z,70.20
2019-05-13T02:49:32.991Z,69.90
2019-05-13T02:52:02.737Z,70.20
2019-05-13T02:54:34.195Z,70.30
2019-05-13T02:57:03.968Z,70.00
2019-05-13T02:59:33.989Z,70.30
2019-05-13T03:02:04.070Z,70.20
2019-05-13T03:04:33.458Z,70.10
2019-05-13T03:07:03.219Z,70.40
2019-05-13T03:09:32.938Z,70.70
2019-05-13T03:12:04.206Z,71.80
2019-05-13T03:14:32.647Z,70.80
2019-05-13T03:17:06.113Z,69.90
2019-05-13T03:19:35.093Z,69.10
2019-05-13T03:22:04.100Z,69.00
2019-05-13T03:24:33.401Z,69.60
2019-05-13T03:27:02.840Z,70.50
2019-05-13T03:29:33.116Z,70.30
2019-05-13T03:32:06.475Z,69.40
2019-05-13T03:34:35.790Z,69.00
2019-05-13T03:37:07.211Z,69.70
2019-05-13T03:39:37.572Z,69.20
2019-05-13T03:42:06.542Z,68.00
2019-05-13T03:44:36.446Z,68.00
2019-05-13T03:47:05.464Z,68.50
2019-05-13T03:49:36.661Z,69.30
2019-05-13T03:52:05.773Z,70.10
2019-05-13T03:54:35.808Z,70.00
2019-05-13T03:57:05.223Z,70.40
2019-05-13T03:59:34.648Z,70.20
2019-05-13T04:02:04.102Z,70.20
2019-05-13T04:04:33.535Z,69.70
2019-05-13T04:07:03.150Z,70.70
2019-05-13T04:09:36.429Z,70.90
2019-05-13T04:12:03.738Z,71.70
2019-05-13T04:14:33.836Z,71.50
2019-05-13T04:17:03.329Z,71.60
2019-05-13T04:19:34.059Z,72.00
2019-05-13T04:22:03.669Z,71.70
2019-05-13T04:24:33.639Z,72.50
2019-05-13T04:27:03.350Z,72.50
2019-05-13T04:29:33.522Z,72.80
2019-05-13T04:32:03.009Z,72.60
2019-05-13T04:34:33.813Z,72.50
2019-05-13T04:37:03.334Z,72.70
2019-05-13T04:39:45.951Z,73.10
2019-05-13T04:42:03.333Z,73.00
2019-05-13T04:44:32.868Z,73.30
2019-05-13T04:47:03.583Z,73.60
2019-05-13T04:49:32.933Z,73.80
2019-05-13T04:52:03.275Z,74.50
2019-05-13T04:54:33.725Z,73.70
2019-05-13T04:57:03.391Z,73.60
2019-05-13T04:59:34.058Z,72.80
2019-05-13T05:02:37.303Z,72.90
2019-05-13T05:05:13.352Z,73.40
2019-05-13T05:08:18.926Z,73.00
2019-05-13T05:10:53.831Z,73.20
2019-05-13T05:13:42.836Z,73.50
2019-05-13T05:16:32.546Z,73.00
2019-05-13T05:19:13.991Z,72.40
2019-05-13T05:21:55.191Z,71.30
2019-05-13T05:24:32.364Z,71.60
2019-05-13T05:27:22.545Z,71.70
2019-05-13T05:29:54.724Z,71.20
2019-05-13T05:32:55.574Z,71.60
2019-05-13T05:35:32.344Z,71.90
2019-05-13T05:38:26.106Z,72.40
2019-05-13T05:40:58.366Z,72.60
2019-05-13T05:43:31.542Z,72.60
2019-05-13T05:46:02.834Z,72.50
2019-05-13T05:48:34.471Z,72.70
2019-05-13T05:51:05.907Z,71.90
2019-05-13T05:53:35.950Z,71.70
2019-05-13T05:56:05.040Z,70.40
2019-05-13T05:58:34.639Z,69.40
2019-05-13T06:01:04.279Z,70.70
2019-05-13T06:03:35.354Z,71.80
2019-05-13T06:06:04.573Z,69.80
2019-05-13T06:08:33.743Z,68.50
2019-05-13T06:11:04.341Z,68.70
2019-05-13T06:13:33.473Z,68.40
2019-05-13T06:16:02.652Z,69.00
2019-05-13T06:18:32.629Z,67.40
2019-05-13T06:21:01.881Z,68.40
2019-05-13T06:23:31.326Z,69.00
2019-05-13T06:26:01.888Z,67.90
2019-05-13T06:28:32.209Z,65.50
2019-05-13T06:31:02.477Z,63.80
2019-05-13T06:33:31.813Z,62.20
2019-05-13T06:36:01.300Z,62.50
2019-05-13T06:38:31.730Z,64.30
2019-05-13T06:41:07.138Z,63.00
2019-05-13T06:43:31.635Z,63.30
2019-05-13T06:46:01.890Z,61.80
2019-05-13T06:48:32.298Z,60.70
2019-05-13T06:51:02.481Z,61.90
2019-05-13T06:53:32.279Z,60.40
2019-05-13T06:56:01.918Z,59.20
2019-05-13T06:58:32.543Z,59.20
2019-05-13T07:01:03.597Z,58.30
2019-05-13T07:03:32.740Z,57.80
2019-05-13T07:06:01.959Z,56.90
2019-05-13T07:08:31.508Z,56.60
2019-05-13T07:11:17.240Z,55.40
2019-05-13T07:13:32.237Z,56.60
2019-05-13T07:16:01.721Z,55.40
2019-05-13T07:18:32.319Z,54.90
2019-05-13T07:21:02.353Z,55.40
2019-05-13T07:23:31.979Z,53.70
2019-05-13T07:26:01.859Z,52.90
2019-05-13T07:28:32.279Z,53.80
2019-05-13T07:31:02.260Z,53.10
2019-05-13T07:33:32.207Z,49.80
2019-05-13T07:36:03.387Z,49.70
2019-05-13T07:38:33.136Z,50.70
2019-05-13T07:41:04.702Z,50.00
2019-05-13T07:43:35.044Z,50.10
2019-05-13T07:46:04.314Z,48.40
2019-05-13T07:48:33.382Z,49.80
2019-05-13T07:51:04.368Z,45.40
2019-05-13T07:53:33.095Z,46.80
2019-05-13T07:56:02.246Z,46.10
2019-05-13T07:58:36.832Z,43.70
2019-05-13T08:01:02.596Z,42.80
2019-05-13T08:03:31.942Z,43.40
2019-05-13T08:06:02.006Z,44.70
2019-05-13T08:08:32.400Z,41.40
2019-05-13T08:11:01.840Z,41.10
2019-05-13T08:13:31.473Z,43.20
2019-05-13T08:16:01.979Z,42.00
2019-05-13T08:18:31.950Z,42.10
2019-05-13T08:21:02.098Z,39.80
2019-05-13T08:23:32.350Z,40.30
2019-05-13T08:26:02.391Z,39.50
2019-05-13T08:28:32.449Z,39.00
2019-05-13T08:31:02.197Z,40.80
2019-05-13T08:33:32.180Z,41.00
2019-05-13T08:36:01.718Z,38.10
2019-05-13T08:38:32.135Z,39.70
2019-05-13T08:41:02.091Z,40.60
2019-05-13T08:43:31.802Z,40.10
2019-05-13T08:46:01.909Z,39.90
2019-05-13T08:48:32.294Z,38.70
2019-05-13T08:51:03.127Z,36.90
2019-05-13T08:53:32.990Z,35.40
2019-05-13T08:56:01.988Z,37.40
2019-05-13T08:58:32.026Z,33.40
2019-05-13T09:01:02.112Z,34.70
2019-05-13T09:03:32.563Z,33.10
2019-05-13T09:06:03.038Z,37.10
2019-05-13T09:08:32.635Z,35.40
2019-05-13T09:11:02.100Z,33.90
2019-05-13T09:13:33.067Z,34.80
2019-05-13T09:16:02.540Z,33.10
2019-05-13T09:18:32.333Z,32.30
2019-05-13T09:21:02.887Z,34.90
2019-05-13T09:23:32.186Z,34.40
2019-05-13T09:26:02.536Z,32.80
2019-05-13T09:28:32.475Z,31.80
2019-05-13T09:31:02.390Z,30.90
2019-05-13T09:33:32.615Z,31.60
2019-05-13T09:36:02.365Z,33.20
2019-05-13T09:38:32.551Z,32.30
2019-05-13T09:41:02.284Z,30.40
2019-05-13T09:43:31.674Z,31.00
2019-05-13T09:46:01.956Z,29.40
2019-05-13T09:48:32.121Z,28.60
2019-05-13T09:51:02.458Z,32.20
2019-05-13T09:53:32.760Z,29.00
2019-05-13T09:56:02.543Z,28.70
2019-05-13T09:58:33.104Z,29.20
2019-05-13T10:01:02.763Z,28.80
2019-05-13T10:03:33.001Z,29.90
2019-05-13T10:06:02.717Z,30.90
2019-05-13T10:08:32.838Z,27.80
2019-05-13T10:11:02.067Z,29.50
2019-05-13T10:13:31.798Z,25.40
2019-05-13T10:16:01.667Z,25.90
2019-05-13T10:18:32.683Z,27.20
2019-05-13T10:21:03.142Z,26.30
2019-05-13T10:23:33.218Z,28.30
2019-05-13T10:26:05.553Z,26.60
2019-05-13T10:28:35.650Z,28.90
2019-05-13T10:31:05.054Z,26.50
2019-05-13T10:33:34.189Z,27.50
2019-05-13T10:36:03.902Z,25.80
2019-05-13T10:38:33.172Z,24.90
2019-05-13T10:41:03.164Z,26.60
2019-05-13T10:43:33.081Z,26.50
2019-05-13T10:46:03.017Z,27.60
2019-05-13T10:48:32.361Z,26.10
2019-05-13T10:51:02.279Z,26.10
2019-05-13T10:56:03.240Z,26.50
2019-05-13T10:58:33.328Z,27.80
2019-05-13T11:01:03.209Z,27.50
2019-05-13T11:03:33.121Z,27.60
2019-05-13T11:06:02.544Z,26.30
2019-05-13T11:08:32.973Z,27.50
2019-05-13T11:11:04.148Z,26.20
2019-05-13T11:13:52.255Z,25.90
2019-05-13T11:16:08.260Z,27.60
2019-05-13T11:18:37.531Z,27.20
2019-05-13T11:23:47.156Z,26.70
2019-05-13T11:26:16.468Z,24.20
2019-05-13T11:28:45.647Z,24.50
2019-05-13T11:31:14.939Z,27.60
2019-05-13T11:33:43.905Z,24.20
2019-05-13T11:36:19.018Z,26.60
2019-05-13T11:38:44.026Z,27.50
2019-05-13T11:41:13.002Z,25.30
2019-05-13T11:43:42.893Z,23.50
2019-05-13T11:46:12.090Z,24.60
2019-05-13T11:48:42.582Z,24.50
2019-05-13T11:51:13.055Z,24.00
2019-05-13T11:53:42.941Z,23.50
2019-05-13T11:56:12.200Z,23.60
2019-05-13T11:58:43.192Z,24.20
2019-05-13T12:01:12.732Z,26.40
2019-05-13T12:03:43.440Z,24.90
2019-05-13T12:06:13.112Z,21.10
2019-05-13T12:08:50.203Z,23.20
2019-05-13T12:11:14.027Z,23.40
2019-05-13T12:13:43.539Z,25.20
2019-05-13T12:16:13.046Z,22.70
2019-05-13T12:18:43.890Z,22.90
2019-05-13T12:21:13.322Z,23.00
2019-05-13T12:23:42.918Z,22.40
2019-05-13T12:26:13.129Z,22.50
2019-05-13T12:28:42.513Z,23.10
2019-05-13T12:31:12.235Z,25.60
2019-05-13T12:33:43.985Z,24.30
2019-05-13T12:36:18.095Z,24.70
2019-05-13T12:38:44.765Z,23.00
2019-05-13T12:41:14.148Z,25.50
2019-05-13T12:43:43.502Z,24.10
2019-05-13T12:46:12.676Z,24.10
2019-05-13T12:48:42.029Z,24.10
2019-05-13T12:51:13.276Z,23.60
2019-05-13T12:53:43.462Z,21.40
2019-05-13T12:56:13.002Z,21.20
2019-05-13T12:58:44.345Z,24.30
2019-05-13T13:01:13.415Z,24.70
2019-05-13T13:03:42.636Z,24.80
2019-05-13T13:06:27.032Z,23.80
2019-05-13T13:08:48.692Z,24.00
2019-05-13T13:11:13.872Z,22.80
2019-05-13T13:13:57.852Z,22.60
2019-05-13T13:16:13.980Z,23.10
2019-05-13T13:18:43.657Z,22.60
2019-05-13T13:21:14.462Z,24.80
2019-05-13T13:23:44.117Z,23.60
2019-05-13T13:26:15.921Z,23.60
2019-05-13T13:28:44.368Z,25.50
2019-05-13T13:31:13.407Z,24.10
2019-05-13T13:33:44.343Z,23.90
2019-05-13T13:36:15.647Z,24.60
2019-05-13T13:38:44.857Z,23.70
2019-05-13T13:41:22.363Z,22.80
2019-05-13T13:43:45.083Z,23.70
2019-05-13T13:46:32.688Z,25.00
2019-05-13T13:48:45.031Z,21.60
2019-05-13T13:51:14.722Z,25.50
2019-05-13T13:53:44.770Z,24.40
2019-05-13T13:56:15.178Z,23.60
2019-05-13T13:58:44.677Z,24.40
2019-05-13T14:01:19.763Z,23.70
2019-05-13T14:03:46.343Z,26.30
2019-05-13T14:06:26.941Z,27.60
2019-05-13T14:07:13.029Z,26.30
2019-05-13T14:08:47.034Z,25.10
2019-05-13T14:11:16.407Z,24.00
2019-05-13T14:13:47.091Z,25.30
2019-05-13T14:16:28.698Z,26.10
2019-05-13T14:18:46.718Z,24.50
2019-05-13T14:21:16.077Z,25.00
2019-05-13T14:23:45.378Z,26.00
2019-05-13T14:26:14.568Z,25.80
2019-05-13T14:28:43.786Z,24.10
2019-05-13T14:31:14.512Z,24.00
2019-05-13T14:33:43.543Z,23.70
2019-05-13T14:36:12.923Z,25.60
2019-05-13T14:38:42.372Z,25.70
2019-05-13T14:41:12.364Z,24.70
2019-05-13T14:43:43.350Z,26.90
2019-05-13T14:46:12.804Z,24.60
2019-05-13T14:48:43.340Z,25.10
2019-05-13T14:51:13.972Z,25.90
2019-05-13T14:53:43.305Z,25.10
2019-05-13T14:56:14.490Z,24.60
2019-05-13T14:58:43.352Z,24.70
2019-05-13T15:01:19.855Z,25.90
2019-05-13T15:03:43.293Z,24.10
2019-05-13T15:06:12.411Z,23.90
2019-05-13T15:08:42.280Z,24.10
2019-05-13T15:11:12.557Z,25.40
2019-05-13T15:13:42.545Z,26.90
2019-05-13T15:16:12.175Z,25.00
2019-05-13T15:18:43.532Z,25.30
2019-05-13T15:21:12.734Z,25.20
2019-05-13T15:23:42.472Z,25.60
2019-05-13T15:26:11.957Z,26.60
2019-05-13T15:28:42.240Z,25.80
2019-05-13T15:31:11.936Z,24.50
2019-05-13T15:33:41.673Z,25.30
2019-05-13T15:36:11.931Z,26.70
2019-05-13T15:38:41.542Z,25.50
2019-05-13T15:41:15.320Z,25.40
2019-05-13T15:43:42.107Z,25.20
2019-05-13T15:46:12.659Z,26.60
2019-05-13T15:48:42.304Z,27.30
2019-05-13T15:51:11.640Z,26.70
2019-05-13T15:53:43.558Z,27.00
2019-05-13T15:56:12.514Z,25.30
2019-05-13T15:58:44.498Z,27.30
2019-05-13T16:01:14.127Z,26.90
2019-05-13T16:03:43.845Z,25.70
2019-05-13T16:06:12.866Z,25.90
2019-05-13T16:08:43.299Z,25.20
2019-05-13T16:11:12.709Z,25.30
2019-05-13T16:13:41.997Z,24.40
2019-05-13T16:16:12.146Z,25.00
2019-05-13T16:18:41.996Z,25.80
2019-05-13T16:21:12.215Z,25.10
2019-05-13T16:23:42.930Z,24.60
2019-05-13T16:26:12.375Z,25.80
2019-05-13T16:28:41.933Z,25.80
2019-05-13T16:31:12.037Z,24.60
2019-05-13T16:33:41.809Z,24.60
2019-05-13T16:36:12.659Z,26.30
2019-05-13T16:38:42.008Z,25.30
2019-05-13T16:41:12.494Z,26.00
2019-05-13T16:43:42.666Z,25.50
2019-05-13T16:46:12.414Z,25.60
2019-05-13T16:48:41.805Z,25.40
2019-05-13T16:51:12.435Z,27.10
2019-05-13T16:53:42.577Z,26.60
2019-05-13T16:56:25.773Z,26.40
2019-05-13T16:58:43.074Z,26.70
2019-05-13T17:01:12.393Z,26.20
2019-05-13T17:03:41.705Z,26.60
2019-05-13T17:06:12.755Z,27.70
2019-05-13T17:08:42.640Z,26.90
2019-05-13T17:11:12.346Z,28.70
2019-05-13T17:13:45.318Z,28.20
2019-05-13T17:16:14.621Z,28.40
2019-05-13T17:18:43.632Z,27.70
2019-05-13T17:21:13.055Z,28.30
2019-05-13T17:23:42.074Z,28.70
2019-05-13T17:26:11.622Z,29.00
2019-05-13T17:28:41.758Z,29.00
2019-05-13T17:31:11.479Z,28.30
2019-05-13T17:33:40.752Z,28.60
2019-05-13T17:36:12.090Z,28.60
2019-05-13T17:38:40.354Z,28.40
2019-05-13T17:41:12.052Z,28.00
2019-05-13T17:43:41.287Z,28.90
2019-05-13T17:46:10.523Z,28.90
2019-05-13T17:48:41.581Z,29.70
2019-05-13T17:51:10.206Z,29.80
2019-05-13T17:53:41.171Z,28.50
2019-05-13T17:56:11.176Z,29.20
2019-05-13T17:58:42.031Z,29.90
2019-05-13T18:01:12.062Z,31.40
2019-05-13T18:03:41.363Z,30.70
2019-05-13T18:06:11.491Z,31.20
2019-05-13T18:08:41.271Z,30.10
2019-05-13T18:11:11.392Z,31.60
2019-05-13T18:13:43.504Z,29.00
2019-05-13T18:16:12.550Z,29.60
2019-05-13T18:18:47.034Z,30.00
2019-05-13T18:21:12.762Z,31.20
2019-05-13T18:23:43.356Z,30.60
2019-05-13T18:26:15.935Z,31.40
2019-05-13T18:28:43.236Z,30.30
2019-05-13T18:31:12.631Z,32.40
2019-05-13T18:33:42.374Z,31.20
2019-05-13T18:36:12.062Z,32.00
2019-05-13T18:38:41.860Z,31.90
2019-05-13T18:41:12.031Z,31.20
2019-05-13T18:43:41.479Z,34.40
2019-05-13T18:46:12.397Z,32.30
2019-05-13T18:48:57.760Z,33.80
2019-05-13T18:51:11.940Z,34.00
2019-05-13T18:53:41.510Z,34.30
2019-05-13T18:56:12.428Z,34.50
2019-05-13T18:58:41.774Z,35.20
2019-05-13T19:01:11.321Z,35.00
2019-05-13T19:03:41.417Z,35.50
2019-05-13T19:06:11.698Z,35.90
2019-05-13T19:08:41.413Z,36.00
2019-05-13T19:11:11.971Z,36.20
2019-05-13T19:13:41.662Z,36.90
2019-05-13T19:16:11.884Z,38.10
2019-05-13T19:18:42.323Z,37.10
2019-05-13T19:21:12.831Z,38.20
2019-05-13T19:23:41.955Z,38.60
2019-05-13T19:26:11.427Z,39.20
2019-05-13T19:28:40.421Z,39.90
2019-05-13T19:31:11.406Z,39.90
2019-05-13T19:33:41.668Z,41.10
2019-05-13T19:36:11.784Z,41.10
2019-05-13T19:38:42.236Z,42.80
2019-05-13T19:41:11.756Z,42.00
2019-05-13T19:43:42.602Z,42.60
2019-05-13T19:46:11.929Z,43.70
2019-05-13T19:48:41.716Z,42.20
2019-05-13T19:51:11.020Z,43.10
2019-05-13T19:53:41.465Z,43.90
2019-05-13T19:56:11.895Z,44.90
2019-05-13T19:58:41.348Z,46.30
2019-05-13T20:01:11.681Z,45.50
2019-05-13T20:03:42.366Z,46.80
2019-05-13T20:06:12.427Z,46.40
2019-05-13T20:08:41.638Z,46.40
2019-05-13T20:11:12.851Z,46.80
2019-05-13T20:13:42.166Z,46.60
2019-05-13T20:16:11.840Z,47.50
2019-05-13T20:18:41.534Z,48.00
2019-05-13T20:21:13.377Z,48.50
2019-05-13T20:23:42.317Z,49.20
2019-05-13T20:26:11.286Z,48.70
2019-05-13T20:28:42.017Z,48.50
2019-05-13T20:31:11.623Z,48.20
2019-05-13T20:33:42.840Z,48.60
2019-05-13T20:36:11.848Z,48.80
2019-05-13T20:38:41.176Z,49.50
2019-05-13T20:41:11.661Z,49.70
2019-05-13T20:43:42.543Z,49.20
2019-05-13T20:46:11.791Z,49.50
2019-05-13T20:48:41.195Z,50.60
2019-05-13T20:51:11.326Z,50.80
2019-05-13T20:53:41.251Z,50.40
2019-05-13T20:56:10.530Z,51.00
2019-05-13T20:58:42.011Z,51.00
2019-05-13T21:01:11.150Z,51.10
2019-05-13T21:03:42.017Z,51.00
2019-05-13T21:06:11.708Z,50.20
2019-05-13T21:08:41.615Z,51.00
2019-05-13T21:11:11.547Z,50.20
2019-05-13T21:13:41.267Z,50.20
2019-05-13T21:16:11.414Z,49.70
2019-05-13T21:18:42.030Z,49.90
2019-05-13T21:21:11.972Z,50.10
2019-05-13T21:23:41.738Z,50.50
2019-05-13T21:26:15.346Z,50.90
2019-05-13T21:28:41.966Z,51.10
2019-05-13T21:31:11.733Z,50.90
2019-05-13T21:33:42.497Z,51.00
2019-05-13T21:36:12.231Z,51.30
2019-05-13T21:38:41.766Z,50.70
2019-05-13T21:41:13.184Z,50.20
2019-05-13T21:43:42.206Z,51.00
2019-05-13T21:46:12.077Z,50.60
2019-05-13T21:48:41.695Z,51.20
2019-05-13T21:51:13.209Z,51.90
2019-05-13T21:53:41.521Z,52.10
2019-05-13T21:56:12.198Z,51.90
2019-05-13T21:58:41.656Z,52.20
2019-05-13T22:01:10.792Z,52.30
2019-05-13T22:03:41.501Z,52.50
2019-05-13T22:06:11.046Z,52.60
2019-05-13T22:08:41.278Z,52.90
2019-05-13T22:11:12.091Z,53.50
2019-05-13T22:13:41.918Z,54.00
2019-05-13T22:16:11.269Z,54.10
2019-05-13T22:18:41.759Z,53.60
2019-05-13T22:21:11.827Z,54.30
2019-05-13T22:23:41.199Z,54.50
2019-05-13T22:26:11.673Z,53.90
2019-05-13T22:28:41.720Z,53.60
2019-05-13T22:31:11.682Z,53.30
2019-05-13T22:33:41.308Z,53.00
2019-05-13T22:36:11.847Z,53.60
2019-05-13T22:38:42.594Z,54.10
2019-05-13T22:41:11.786Z,53.70
2019-05-13T22:43:52.466Z,53.30
2019-05-13T22:46:13.953Z,53.90
2019-05-13T22:48:42.108Z,54.30
2019-05-13T22:51:11.757Z,54.00
2019-05-13T22:53:42.210Z,54.50
2019-05-13T22:56:11.440Z,54.50
2019-05-13T22:58:41.250Z,54.10
2019-05-13T23:01:11.487Z,55.00
2019-05-13T23:03:41.218Z,54.30
2019-05-13T23:06:12.085Z,54.90
2019-05-13T23:08:41.172Z,55.10
2019-05-13T23:11:12.393Z,55.20
2019-05-13T23:13:42.217Z,54.70
2019-05-13T23:16:11.608Z,54.80
2019-05-13T23:18:42.076Z,54.80
2019-05-13T23:21:11.551Z,55.00
2019-05-13T23:23:40.669Z,54.90
2019-05-13T23:26:11.719Z,56.40
2019-05-13T23:28:41.567Z,57.00
2019-05-13T23:31:12.384Z,57.00
2019-05-13T23:33:42.080Z,57.00
2019-05-13T23:36:11.956Z,55.70
2019-05-13T23:38:41.869Z,56.40
2019-05-13T23:41:11.551Z,56.00
2019-05-13T23:43:41.151Z,56.20
2019-05-13T23:46:11.797Z,56.20
2019-05-13T23:48:42.056Z,56.60
2019-05-13T23:51:12.944Z,55.50
2019-05-13T23:53:41.890Z,56.30
2019-05-13T23:56:11.237Z,56.80
2019-05-13T23:58:41.368Z,57.30
